createdAt,value
2023-08-17T00:10:26.397Z,101466.09
2023-08-17T00:25:29.252Z,101471.81
2023-08-17T00:40:32.166Z,101472.72
2023-08-17T00:55:35.151Z,101443.50
2023-08-17T01:10:42.104Z,101450.63
2023-08-17T01:25:44.987Z,101397.69
2023-08-17T01:40:48.124Z,101412.47
2023-08-17T01:55:52.785Z,101396.53
2023-08-17T02:10:57.191Z,101380.19
2023-08-17T02:26:00.002Z,101387.28
2023-08-17T02:41:02.932Z,101396.16
2023-08-17T02:56:05.920Z,101396.88
2023-08-17T03:11:10.228Z,101418.38
2023-08-17T03:26:13.446Z,101424.34
2023-08-17T03:41:18.286Z,101443.66
2023-08-17T03:56:24.163Z,101445.56
2023-08-17T04:11:27.062Z,101456.66
2023-08-17T04:26:29.996Z,101480.19
2023-08-17T04:41:32.934Z,101516.44
2023-08-17T04:56:37.354Z,101594.84
2023-08-17T05:11:41.235Z,101712.69
2023-08-17T05:26:44.376Z,101883.06
2023-08-17T05:41:49.609Z,101736.56
2023-08-17T05:56:52.937Z,101569.94
2023-08-17T06:11:55.804Z,101553.06
2023-08-17T06:26:58.769Z,101385.25
2023-08-17T06:42:01.643Z,101366.16
2023-08-17T06:57:04.786Z,101422.13
2023-08-17T07:12:07.968Z,101202.22
2023-08-17T07:27:10.948Z,101259.94
2023-08-17T07:42:13.894Z,101320.97
2023-08-17T07:57:16.779Z,101329.72
2023-08-17T08:12:19.640Z,101458.44
2023-08-17T08:27:22.486Z,101517.44
2023-08-17T08:42:25.402Z,101508.69
2023-08-17T08:57:28.466Z,101497.63
2023-08-17T09:12:39.634Z,101323.81
2023-08-17T09:27:45.633Z,101509.00
2023-08-17T09:42:48.430Z,101626.81
2023-08-17T09:57:51.626Z,101630.06
2023-08-17T10:13:06.248Z,101457.28
2023-08-17T10:28:09.618Z,101079.97
2023-08-17T10:43:12.455Z,101026.56
2023-08-17T10:58:17.451Z,100922.88
2023-08-17T11:13:20.287Z,100914.34
2023-08-17T11:28:23.208Z,101015.72
2023-08-17T11:43:26.078Z,100963.41
2023-08-17T11:58:40.736Z,100914.72
2023-08-17T12:13:43.577Z,100835.34
2023-08-17T12:28:46.486Z,100788.75
2023-08-17T12:43:49.440Z,100786.41
2023-08-17T12:58:52.349Z,100778.53
2023-08-17T13:13:55.155Z,100724.06
2023-08-17T13:28:57.973Z,100695.66
2023-08-17T13:44:01.180Z,100695.25
2023-08-17T13:59:04.375Z,100668.50
2023-08-17T14:14:08.551Z,100638.09
2023-08-17T14:29:12.162Z,100639.41
2023-08-17T14:44:15.091Z,100553.59
2023-08-17T14:59:18.161Z,100606.28
2023-08-17T15:14:21.139Z,100582.75
2023-08-17T15:29:24.070Z,100530.44
2023-08-17T15:44:26.966Z,100504.69
2023-08-17T15:59:30.222Z,100541.03
2023-08-17T16:14:33.356Z,100581.72
2023-08-17T16:29:36.297Z,100558.66
2023-08-17T16:44:40.053Z,100605.41
2023-08-17T16:59:43.147Z,100608.50
2023-08-17T17:14:46.016Z,100615.66
2023-08-17T17:29:48.963Z,100649.50
2023-08-17T17:44:51.860Z,100645.25
2023-08-17T17:59:54.771Z,100669.22
2023-08-17T18:14:57.652Z,100678.97
2023-08-17T18:30:00.568Z,100678.13
2023-08-17T18:45:03.735Z,100728.19
2023-08-17T19:00:07.544Z,100762.56
2023-08-17T19:15:11.219Z,100832.66
2023-08-17T19:30:14.151Z,100823.78
2023-08-17T19:45:17.267Z,100883.47
2023-08-17T20:00:22.610Z,100889.97
2023-08-17T20:15:27.089Z,100897.19
2023-08-17T20:30:29.993Z,100911.19
2023-08-17T20:45:32.893Z,100927.53
2023-08-17T21:00:35.840Z,100937.44
2023-08-17T21:15:38.921Z,100942.25
2023-08-17T21:30:41.952Z,100935.00
2023-08-17T21:45:45.082Z,100925.00
2023-08-17T22:00:48.479Z,100911.78
2023-08-17T22:15:51.377Z,100877.56
2023-08-17T22:31:03.625Z,100887.84
2023-08-17T22:46:08.521Z,100911.81
2023-08-17T23:01:12.684Z,100943.38
2023-08-17T23:16:15.646Z,100931.09
2023-08-17T23:31:18.531Z,100935.78
2023-08-17T23:46:21.385Z,100949.19
